Time;durP1;ratioP1;P1;durP2;ratioP2;P2;SDS_P1;SDS_P2;PMS_P1;PMS_P2;Temp;Humidity;BMP_temperature;BMP_pressure;BME280_temperature;BME280_humidity;BME280_pressure;Samples;Min_cycle;Max_cycle;Signal;HPM_P1;HPM_P2
2024/03/20 00:31:40;;;;;;;16.15;9.50;;;;;;;14.03;61.86;100099.78;6100875;23;20025;-90
2024/03/20 00:34:05;;;;;;;17.75;10.55;;;;;;;13.99;62.25;100096.50;6043842;23;20026;-90
2024/03/20 00:36:31;;;;;;;14.27;10.65;;;;;;;13.94;62.33;100091.50;6044505;23;20030;-90
2024/03/20 00:38:57;;;;;;;15.45;10.57;;;;;;;13.91;62.27;100101.44;6044444;23;20088;-90
2024/03/20 00:41:22;;;;;;;15.77;9.98;;;;;;;13.87;62.33;100098.13;6068050;23;20057;-90
2024/03/20 00:43:48;;;;;;;15.20;10.27;;;;;;;13.84;62.27;100103.63;6067420;23;20022;-90
2024/03/20 00:46:14;;;;;;;16.80;10.68;;;;;;;13.80;62.41;100094.19;6068143;23;20033;-90
2024/03/20 00:48:40;;;;;;;17.20;10.77;;;;;;;13.74;62.42;100095.44;6044523;23;20329;-90
2024/03/20 00:51:05;;;;;;;17.35;11.70;;;;;;;13.71;62.38;100097.44;6044475;23;20027;-90
2024/03/20 00:53:31;;;;;;;20.02;11.60;;;;;;;13.67;62.47;100089.72;6067729;23;20082;-90
2024/03/20 00:55:57;;;;;;;17.00;11.55;;;;;;;13.62;62.61;100089.16;6044137;23;20097;-90
2024/03/20 00:58:22;;;;;;;19.20;11.68;;;;;;;13.61;62.88;100095.38;6044422;23;20026;-90
2024/03/20 01:00:49;;;;;;;18.38;11.70;;;;;;;13.59;62.88;100081.41;6068227;23;20037;-90
2024/03/20 01:03:14;;;;;;;15.05;10.98;;;;;;;13.56;62.83;100086.88;6067625;23;20029;-89
2024/03/20 01:05:41;;;;;;;22.65;11.52;;;;;;;13.54;63.04;100080.88;6044616;23;20026;-90
2024/03/20 01:08:07;;;;;;;20.73;11.63;;;;;;;13.53;62.78;100081.81;6044115;23;20025;-90
2024/03/20 01:10:33;;;;;;;14.18;11.52;;;;;;;13.50;63.09;100074.06;6067876;23;20506;-90
2024/03/20 01:12:58;;;;;;;21.52;12.05;;;;;;;13.45;62.93;100076.16;6067488;23;20030;-90
2024/03/20 01:15:24;;;;;;;16.42;11.32;;;;;;;13.42;62.96;100067.44;6068215;23;20033;-90
2024/03/20 01:17:50;;;;;;;16.63;12.27;;;;;;;13.39;62.91;100070.28;6044015;23;20062;-90
2024/03/20 01:20:16;;;;;;;17.25;11.35;;;;;;;13.35;62.95;100068.78;6069920;23;20029;-89
2024/03/20 01:22:41;;;;;;;19.75;11.68;;;;;;;13.32;63.02;100069.00;6045419;23;20027;-90
2024/03/20 01:25:08;;;;;;;17.88;11.75;;;;;;;13.30;63.03;100062.94;6046009;23;20030;-90
2024/03/20 01:27:34;;;;;;;16.98;11.38;;;;;;;13.26;63.15;100070.22;6070202;23;20029;-89
2024/03/20 01:30:00;;;;;;;17.00;12.07;;;;;;;13.20;63.09;100070.59;6069783;23;20464;-90
2024/03/20 01:32:26;;;;;;;18.80;11.80;;;;;;;13.18;63.22;100067.22;6045537;23;20031;-90
2024/03/20 01:34:52;;;;;;;18.45;11.70;;;;;;;13.13;63.09;100072.78;6046035;23;20479;-90
2024/03/20 01:37:18;;;;;;;19.45;11.70;;;;;;;13.11;63.35;100071.19;6046036;23;20022;-89
2024/03/20 01:39:44;;;;;;;16.98;11.07;;;;;;;13.06;63.61;100068.84;6046099;23;20030;-89
2024/03/20 01:42:10;;;;;;;16.95;11.45;;;;;;;13.05;63.49;100075.06;6068905;23;20030;-90
2024/03/20 01:44:35;;;;;;;19.08;11.48;;;;;;;13.02;63.64;100069.97;6045804;23;20538;-90
2024/03/20 01:47:02;;;;;;;17.15;11.30;;;;;;;12.98;63.62;100065.81;6045768;23;20026;-90
2024/03/20 01:49:30;;;;;;;17.98;12.30;;;;;;;12.96;63.69;100067.69;6046161;23;20034;-90
2024/03/20 01:51:57;;;;;;;16.45;11.13;;;;;;;12.94;64.00;100064.31;6045249;23;20078;-90
2024/03/20 01:54:23;;;;;;;15.70;11.25;;;;;;;12.92;64.10;100058.25;6046295;23;20467;-90
2024/03/20 01:56:48;;;;;;;14.15;10.60;;;;;;;12.90;64.10;100056.56;6045667;23;20062;-90
2024/03/20 01:59:14;;;;;;;16.10;10.95;;;;;;;12.90;64.08;100058.38;6046018;23;20375;-89
2024/03/20 02:01:40;;;;;;;18.77;11.50;;;;;;;12.89;64.25;100054.88;6045714;23;20023;-90
2024/03/20 02:04:06;;;;;;;17.65;10.98;;;;;;;12.89;64.13;100057.53;6069334;23;20412;-90
2024/03/20 02:06:33;;;;;;;18.05;11.80;;;;;;;12.89;64.18;100054.88;6045707;23;20023;-90
2024/03/20 02:09:00;;;;;;;18.10;10.75;;;;;;;12.89;64.39;100051.38;6045539;23;20519;-89
2024/03/20 02:11:27;;;;;;;18.02;11.18;;;;;;;12.88;64.26;100050.53;6045843;23;20027;-90
2024/03/20 02:13:57;;;;;;;15.38;10.85;;;;;;;12.88;64.03;100055.81;6045030;23;20022;-90
2024/03/20 02:16:25;;;;;;;17.58;10.25;;;;;;;12.89;64.15;100051.38;6045681;23;20081;-90
2024/03/20 02:18:51;;;;;;;18.20;10.75;;;;;;;12.88;64.12;100049.69;6045691;23;20018;-90
2024/03/20 02:21:19;;;;;;;19.23;11.18;;;;;;;12.86;64.17;100055.06;6045567;23;20029;-90
2024/03/20 02:23:45;;;;;;;20.17;11.50;;;;;;;12.86;64.38;100052.41;6044924;23;20026;-90
2024/03/20 02:26:11;;;;;;;19.77;10.95;;;;;;;12.85;64.26;100058.66;6045461;23;20029;-90
2024/03/20 02:28:40;;;;;;;19.65;10.32;;;;;;;12.82;64.11;100060.66;6045635;23;20018;-91
2024/03/20 02:31:10;;;;;;;17.63;10.65;;;;;;;12.82;64.33;100060.66;6045331;23;20027;-90
2024/03/20 02:33:37;;;;;;;17.45;10.18;;;;;;;12.81;64.81;100065.06;6045109;23;20026;-90
2024/03/20 02:36:04;;;;;;;18.80;11.10;;;;;;;12.83;64.85;100051.78;6069660;23;20026;-90
2024/03/20 02:38:34;;;;;;;16.20;10.48;;;;;;;12.83;64.54;100060.56;6045480;23;20025;-90
2024/03/20 02:41:00;;;;;;;16.20;11.23;;;;;;;12.86;64.89;100052.41;6045673;23;20022;-90
2024/03/20 02:43:27;;;;;;;22.23;11.13;;;;;;;12.88;64.85;100050.53;6068609;23;20030;-90
2024/03/20 02:45:53;;;;;;;14.68;10.63;;;;;;;12.90;64.81;100048.63;6069306;23;20077;-90
2024/03/20 02:48:20;;;;;;;15.32;10.27;;;;;;;12.94;64.91;100046.69;6045215;23;20026;-90
2024/03/20 02:50:46;;;;;;;15.95;10.50;;;;;;;12.96;65.02;100054.47;6045609;23;20489;-90
2024/03/20 02:53:11;;;;;;;14.57;9.85;;;;;;;12.99;64.86;100054.31;6044907;23;20026;-90
2024/03/20 02:55:43;;;;;;;14.10;9.70;;;;;;;12.96;64.23;100051.84;6045350;23;20030;-90
2024/03/20 02:58:09;;;;;;;17.50;9.75;;;;;;;12.99;64.67;100052.53;6069100;23;20033;-90
2024/03/20 03:00:35;;;;;;;13.80;9.57;;;;;;;12.99;64.65;100051.66;6069628;23;20026;-90
2024/03/20 03:03:01;;;;;;;18.48;10.48;;;;;;;12.98;64.25;100056.09;6044617;23;20078;-90
2024/03/20 03:05:28;;;;;;;18.00;10.40;;;;;;;12.96;64.45;100060.63;6068947;23;20026;-90
2024/03/20 03:07:54;;;;;;;17.77;10.27;;;;;;;12.93;64.61;100052.88;6045285;23;20023;-90
2024/03/20 03:10:22;;;;;;;14.93;10.07;;;;;;;12.92;64.65;100056.47;6045343;23;20030;-90
2024/03/20 03:12:48;;;;;;;11.63;9.20;;;;;;;12.90;64.62;100051.28;6044835;23;20381;-90
2024/03/20 03:15:15;;;;;;;17.60;10.65;;;;;;;12.90;64.60;100059.22;6045056;23;20022;-90
2024/03/20 03:17:41;;;;;;;14.95;10.02;;;;;;;12.88;64.86;100071.69;6045032;23;20082;-91
2024/03/20 03:20:14;;;;;;;15.50;9.40;;;;;;;12.88;64.79;100063.75;6069324;23;20018;-90
2024/03/20 03:22:41;;;;;;;;;;;;;;;12.89;64.29;100075.16;6045228;23;20026;-90
2024/03/20 03:25:08;;;;;;;12.57;8.32;;;;;;;12.90;64.49;100056.56;6068830;23;19924;-90
2024/03/20 03:27:34;;;;;;;14.18;9.27;;;;;;;12.91;64.62;100070.63;6044845;23;20356;-91
2024/03/20 03:30:00;;;;;;;16.88;9.80;;;;;;;12.87;64.64;100067.31;6045110;23;20018;-90
2024/03/20 03:32:26;;;;;;;18.08;9.70;;;;;;;12.83;64.68;100073.75;6044621;23;20065;-90
2024/03/20 03:34:52;;;;;;;17.20;10.20;;;;;;;12.82;64.88;100068.56;6044955;23;20027;-90
2024/03/20 03:37:18;;;;;;;14.75;9.35;;;;;;;12.80;65.06;100073.09;6044953;23;20247;-90
2024/03/20 03:39:44;;;;;;;18.00;9.90;;;;;;;12.79;65.04;100076.69;6045045;23;20018;-90
2024/03/20 03:42:14;;;;;;;14.02;10.38;;;;;;;12.78;64.81;100081.09;6044442;23;20078;-90
2024/03/20 03:44:41;;;;;;;15.00;9.63;;;;;;;12.77;65.11;100076.75;6044898;23;20497;-90
2024/03/20 03:47:07;;;;;;;16.73;9.82;;;;;;;12.74;65.08;100074.31;6068862;23;20033;-90
2024/03/20 03:49:33;;;;;;;15.63;9.85;;;;;;;12.73;64.94;100078.75;6068576;23;20022;-90
2024/03/20 03:51:59;;;;;;;15.10;10.07;;;;;;;12.71;65.05;100075.34;6044256;23;20044;-90
2024/03/20 03:54:25;;;;;;;15.95;9.95;;;;;;;12.70;65.12;100078.94;6068856;23;20023;-90
2024/03/20 03:56:51;;;;;;;13.40;9.60;;;;;;;12.69;65.10;100084.31;6068708;23;20295;-90
2024/03/20 03:59:18;;;;;;;17.25;9.90;;;;;;;12.67;65.07;100081.75;6040348;23;20019;-91
2024/03/20 04:01:46;;;;;;;12.85;9.40;;;;;;;12.66;65.06;100081.84;6016146;23;20030;-90
2024/03/20 04:04:12;;;;;;;13.68;9.35;;;;;;;12.65;65.07;100073.09;6016385;23;20023;-90
2024/03/20 04:06:38;;;;;;;12.52;9.20;;;;;;;12.63;64.96;100081.09;6039846;23;20062;-90
2024/03/20 04:09:05;;;;;;;14.02;9.68;;;;;;;12.60;65.05;100081.28;6016214;23;20333;-90
2024/03/20 04:11:31;;;;;;;14.07;8.98;;;;;;;12.61;64.89;100082.13;6016133;23;20034;-91
2024/03/20 04:13:57;;;;;;;20.63;10.02;;;;;;;12.58;65.18;100080.53;6039071;23;20337;-91
2024/03/20 04:16:23;;;;;;;17.13;10.25;;;;;;;12.56;65.12;100079.75;6040019;23;20029;-90
2024/03/20 04:18:49;;;;;;;20.77;10.85;;;;;;;12.55;65.26;100079.84;6064180;23;20054;-90
2024/03/20 04:21:15;;;;;;;12.15;9.13;;;;;;;12.54;65.31;100076.38;6016276;23;20037;-90
2024/03/20 04:23:40;;;;;;;16.17;10.48;;;;;;;12.51;65.28;100074.78;6015742;23;20022;-90
2024/03/20 04:26:06;;;;;;;13.13;9.15;;;;;;;12.49;65.17;100074.00;6016169;23;20033;-90
2024/03/20 04:28:32;;;;;;;14.57;9.75;;;;;;;12.49;65.31;100075.81;6016181;23;20023;-90
2024/03/20 04:30:58;;;;;;;14.98;9.88;;;;;;;12.47;65.30;100078.53;6016237;23;20338;-90
2024/03/20 04:33:24;;;;;;;16.48;9.85;;;;;;;12.46;65.15;100078.63;6015557;23;20036;-91
2024/03/20 04:35:50;;;;;;;13.98;9.73;;;;;;;12.43;65.19;100081.44;6015870;23;20027;-90
2024/03/20 04:38:16;;;;;;;18.17;10.13;;;;;;;12.39;65.37;100080.78;6039809;23;20082;-90
2024/03/20 04:40:41;;;;;;;14.23;11.00;;;;;;;12.37;65.25;100078.22;6015959;23;20053;-90
2024/03/20 04:43:07;;;;;;;16.67;11.07;;;;;;;12.36;65.51;100088.88;6015196;23;20027;-90
2024/03/20 04:45:33;;;;;;;19.00;9.60;;;;;;;12.33;65.35;100091.69;6016044;23;20089;-89
2024/03/20 04:47:58;;;;;;;14.93;8.77;;;;;;;12.31;65.10;100093.59;6015900;23;20465;-90
2024/03/20 04:50:24;;;;;;;15.57;10.15;;;;;;;12.28;65.29;100081.41;6015862;23;20080;-90
2024/03/20 04:52:50;;;;;;;22.50;9.85;;;;;;;12.27;65.29;100087.66;6015100;23;20034;-90
2024/03/20 04:55:15;;;;;;;16.52;10.32;;;;;;;12.23;65.40;100088.75;6015697;23;20472;-90
2024/03/20 04:57:41;;;;;;;15.40;9.27;;;;;;;12.20;65.43;100081.00;6039427;23;20027;-90
2024/03/20 05:00:15;;;;;;;14.55;9.10;;;;;;;12.18;65.70;100082.91;6015963;23;20018;-90
2024/03/20 05:02:41;;;;;;;13.63;10.07;;;;;;;12.16;65.91;100084.78;6038792;23;20030;-90
2024/03/20 05:05:09;;;;;;;15.43;9.80;;;;;;;12.16;65.72;100074.22;6016468;23;20337;-90
2024/03/20 05:07:37;;;;;;;21.80;10.80;;;;;;;12.15;65.92;100085.72;6015570;23;20097;-90
2024/03/20 05:10:04;;;;;;;16.67;11.13;;;;;;;12.14;65.88;100084.84;6016116;23;20023;-90
2024/03/20 05:12:31;;;;;;;15.63;10.02;;;;;;;12.13;65.95;100077.88;6038538;23;20031;-90
2024/03/20 05:14:57;;;;;;;15.07;9.27;;;;;;;12.15;66.08;100078.63;6016284;23;20031;-86
2024/03/20 05:17:22;;;;;;;17.63;9.95;;;;;;;12.15;66.01;100083.09;6040285;23;20065;-87
2024/03/20 05:19:48;;;;;;;15.82;9.93;;;;;;;12.16;66.14;100090.06;6040160;23;20030;-88
2024/03/20 05:22:14;;;;;;;12.65;8.90;;;;;;;12.19;66.29;100089.88;6015998;23;20027;-87
2024/03/20 05:24:40;;;;;;;14.27;9.00;;;;;;;12.19;66.42;100095.16;6016605;23;20023;-87
2024/03/20 05:27:07;;;;;;;15.93;9.85;;;;;;;12.21;66.22;100099.41;6016892;23;20038;-87
2024/03/20 05:29:33;;;;;;;15.85;9.68;;;;;;;12.22;66.31;100089.69;6040075;23;20023;-87
2024/03/20 05:31:59;;;;;;;17.80;9.60;;;;;;;12.23;66.44;100086.13;6015978;23;20037;-87
2024/03/20 05:34:24;;;;;;;15.57;10.07;;;;;;;12.23;66.41;100084.31;6040127;23;20023;-87
2024/03/20 05:36:50;;;;;;;15.13;9.50;;;;;;;12.24;66.26;100093.09;6016384;23;20054;-87
2024/03/20 05:39:15;;;;;;;16.17;10.02;;;;;;;12.25;66.04;100090.38;6040354;23;20031;-86
2024/03/20 05:41:41;;;;;;;14.70;10.38;;;;;;;12.26;66.18;100093.84;6016434;23;20062;-87
2024/03/20 05:44:07;;;;;;;16.90;10.05;;;;;;;12.26;66.06;100099.13;6017178;23;20026;-87
2024/03/20 05:46:33;;;;;;;13.35;9.05;;;;;;;12.25;66.24;100100.94;6017150;23;20029;-87
2024/03/20 05:48:59;;;;;;;15.23;10.13;;;;;;;12.25;66.13;100100.06;6041025;23;20066;-87
2024/03/20 05:51:26;;;;;;;14.52;9.05;;;;;;;12.25;66.14;100094.78;6041175;23;20027;-87
2024/03/20 05:53:51;;;;;;;17.15;9.38;;;;;;;12.24;66.25;100098.38;6040122;23;20023;-87
2024/03/20 05:56:18;;;;;;;12.82;9.18;;;;;;;12.24;66.16;100103.66;6040298;23;20073;-87
2024/03/20 05:58:44;;;;;;;12.60;9.13;;;;;;;12.24;66.42;100098.38;6040209;23;20030;-87
2024/03/20 06:01:10;;;;;;;13.93;9.57;;;;;;;12.23;66.40;100105.44;6016326;23;20027;-87
2024/03/20 06:03:36;;;;;;;14.60;9.90;;;;;;;12.26;66.54;100107.03;6015777;23;20023;-87
2024/03/20 06:06:01;;;;;;;14.40;9.52;;;;;;;12.26;66.37;100101.75;6018273;23;20101;-87
2024/03/20 06:08:28;;;;;;;15.85;9.98;;;;;;;12.27;66.66;100100.84;6042450;23;20054;-87
2024/03/20 06:11:23;;;;;;;14.90;9.48;;;;;;;12.29;66.50;100096.31;5979707;24;20497;-87
2024/03/20 06:13:49;;;;;;;16.17;9.43;;;;;;;12.31;66.60;100101.50;5954981;24;20028;-87
2024/03/20 06:16:16;;;;;;;16.02;9.68;;;;;;;12.31;66.32;100105.00;5933030;24;20035;-88
2024/03/20 06:18:42;;;;;;;14.70;9.23;;;;;;;12.33;66.59;100104.88;5932834;24;20024;-87
2024/03/20 06:21:10;;;;;;;14.30;9.95;;;;;;;12.35;66.54;100100.38;5994297;23;20035;-87
2024/03/20 06:23:35;;;;;;;16.60;10.52;;;;;;;12.37;66.75;100104.63;6017166;23;20364;-87
2024/03/20 06:26:01;;;;;;;14.60;9.60;;;;;;;12.37;66.78;100102.00;6018350;23;20042;-87
2024/03/20 07:12:17;;;;;;;17.15;10.00;;;;;;;12.89;66.49;100142.06;6071620;23;20015;-87
2024/03/20 07:14:43;;;;;;;16.92;10.38;;;;;;;12.98;67.51;100143.28;6019914;23;20023;-87
2024/03/20 07:17:09;;;;;;;15.32;11.18;;;;;;;13.04;67.52;100144.72;6019660;23;20034;-87
2024/03/20 07:23:57;;;;;;;15.63;10.18;;;;;;;13.20;66.43;100149.88;6068754;23;20021;-87
2024/03/20 07:26:22;;;;;;;19.40;11.23;;;;;;;13.31;67.32;100149.25;6043313;23;20350;-87
2024/03/20 07:29:11;;;;;;;15.63;11.00;;;;;;;13.34;66.50;100151.69;6043171;23;20019;-87
2024/03/20 07:31:38;;;;;;;15.73;10.70;;;;;;;13.43;67.25;100159.03;6043300;23;20022;-87
2024/03/20 07:37:25;;;;;;;19.17;10.70;;;;;;;13.59;67.15;100147.53;6043204;23;20495;-87
2024/03/20 07:39:51;;;;;;;22.58;11.23;;;;;;;13.65;66.91;100160.38;6019966;23;20023;-87
2024/03/20 07:42:58;;;;;;;17.90;11.73;;;;;;;13.66;65.53;100163.88;6043269;23;20389;-87
2024/03/20 07:45:24;;;;;;;16.80;11.18;;;;;;;13.79;66.55;100155.97;6019452;23;20019;-87
2024/03/20 07:48:05;;;;;;;20.10;11.88;;;;;;;13.80;65.57;100153.25;6019575;23;20045;-87
2024/03/20 07:50:30;;;;;;;15.75;11.98;;;;;;;13.90;66.86;100147.34;6043082;23;20548;-87
2024/03/20 07:53:09;;;;;;;17.60;11.10;;;;;;;13.93;66.07;100145.38;6019430;23;20056;-87
2024/03/20 07:55:35;;;;;;;17.05;11.27;;;;;;;14.04;67.28;100149.97;6043252;23;20462;-87
2024/03/20 07:58:01;;;;;;;16.55;12.13;;;;;;;14.12;66.99;100149.47;6043084;23;20062;-87
2024/03/20 08:00:29;;;;;;;17.55;11.45;;;;;;;14.20;66.67;100152.44;6042975;23;20023;-87
2024/03/20 08:02:56;;;;;;;16.58;12.25;;;;;;;14.30;67.00;100154.47;6042848;23;20046;-87
2024/03/20 08:05:23;;;;;;;14.15;11.23;;;;;;;14.40;66.55;100157.38;6043061;23;20797;-87
2024/03/20 08:08:22;;;;;;;18.38;11.75;;;;;;;14.44;65.05;100164.16;6019551;23;20457;-87
2024/03/20 08:10:57;;;;;;;18.25;11.85;;;;;;;14.54;65.11;100167.06;6014490;23;20019;-87
2024/03/20 08:13:24;;;;;;;16.25;11.77;;;;;;;14.64;65.97;100162.81;6014628;23;20027;-87
2024/03/20 08:15:58;;;;;;;18.20;11.43;;;;;;;14.65;64.58;100159.22;6038293;23;20034;-87
2024/03/20 08:18:23;;;;;;;17.55;11.75;;;;;;;14.74;65.77;100163.06;6038243;23;20027;-87
2024/03/20 08:20:49;;;;;;;17.90;11.63;;;;;;;14.79;65.81;100160.97;6014694;23;20126;-87
2024/03/20 08:23:30;;;;;;;13.85;10.88;;;;;;;14.84;64.98;100166.78;6038030;23;20102;-87
2024/03/20 08:25:57;;;;;;;15.05;11.85;;;;;;;14.95;66.13;100166.06;6014446;23;20030;-87
2024/03/20 08:28:23;;;;;;;19.33;12.35;;;;;;;15.04;66.20;100164.59;6014076;23;20023;-87
2024/03/20 08:31:14;;;;;;;16.80;12.63;;;;;;;15.10;64.58;100158.84;6014626;23;20023;-87
2024/03/20 08:33:40;;;;;;;17.83;13.05;;;;;;;15.25;66.00;100164.00;6037983;23;20333;-87
2024/03/20 08:36:08;;;;;;;19.33;13.35;;;;;;;15.34;66.22;100159.88;6037952;23;20069;-87
2024/03/20 08:38:47;;;;;;;18.63;13.63;;;;;;;15.41;64.94;100165.59;6014480;23;20450;-87
2024/03/20 08:41:12;;;;;;;21.65;13.77;;;;;;;15.56;65.70;100161.00;6014417;23;20023;-87
2024/03/20 08:44:00;;;;;;;20.02;13.68;;;;;;;15.62;64.16;100169.38;6014366;23;20453;-87
2024/03/20 08:46:26;;;;;;;16.73;12.93;;;;;;;15.75;65.10;100166.66;6014558;23;20027;-87
2024/03/20 08:48:52;;;;;;;18.65;13.90;;;;;;;15.85;65.03;100171.34;6037979;23;20078;-87
2024/03/20 08:51:41;;;;;;;18.70;12.63;;;;;;;15.87;63.55;100166.75;6037837;23;20034;-87
2024/03/20 08:54:07;;;;;;;16.73;13.38;;;;;;;15.98;64.84;100164.19;6014332;23;20027;-88
2024/03/20 08:56:32;;;;;;;23.90;15.73;;;;;;;16.05;64.35;100163.72;6014292;23;20347;-87
2024/03/20 08:59:04;;;;;;;19.33;15.13;;;;;;;16.10;62.81;100161.56;6014233;23;20030;-87
2024/03/20 09:01:30;;;;;;;18.23;15.23;;;;;;;16.18;64.09;100171.66;6014224;23;20024;-87
2024/03/20 09:04:26;;;;;;;21.38;15.00;;;;;;;16.19;62.40;100179.50;6014189;23;20058;-88
2024/03/20 09:06:52;;;;;;;20.40;15.25;;;;;;;16.26;63.29;100167.44;6037914;23;20023;-87
2024/03/20 09:09:29;;;;;;;18.60;14.27;;;;;;;16.24;61.54;100168.53;6014116;23;20023;-87
2024/03/20 09:11:55;;;;;;;20.05;15.00;;;;;;;16.28;63.03;100170.84;6014023;23;20470;-87
2024/03/20 09:14:20;;;;;;;18.80;14.57;;;;;;;16.30;63.25;100176.06;6037882;23;20038;-87
2024/03/20 09:20:34;;;;;;;22.05;15.73;;;;;;;16.35;63.31;100175.69;6039255;23;20083;-87
2024/03/20 09:23:22;;;;;;;21.85;16.15;;;;;;;16.34;61.08;100180.16;6037591;23;20028;-88
2024/03/20 09:25:48;;;;;;;23.23;16.58;;;;;;;16.43;62.87;100173.31;6037689;23;20026;-87
2024/03/20 09:31:37;;;;;;;22.20;16.83;;;;;;;16.56;63.38;100175.06;6037661;23;20347;-87
2024/03/20 09:34:21;;;;;;;23.27;16.30;;;;;;;16.59;61.78;100172.16;6013812;23;20027;-87
2024/03/20 09:36:49;;;;;;;26.13;16.80;;;;;;;16.70;62.97;100174.00;6014040;23;20074;-87
2024/03/20 09:39:35;;;;;;;22.33;17.65;;;;;;;16.73;61.23;100173.75;6037769;23;20019;-87
2024/03/20 09:42:01;;;;;;;23.65;16.35;;;;;;;16.82;62.62;100167.72;6015861;23;20031;-87
2024/03/20 09:44:39;;;;;;;23.67;17.50;;;;;;;16.83;60.35;100169.44;6039472;23;20030;-88
2024/03/20 09:47:05;;;;;;;25.02;18.25;;;;;;;16.91;61.92;100171.50;6039496;23;20083;-87
2024/03/20 09:49:31;;;;;;;23.98;18.92;;;;;;;16.95;62.26;100167.63;6039283;23;20027;-87
2024/03/20 09:52:12;;;;;;;25.90;19.60;;;;;;;16.96;60.18;100168.50;6015853;23;20081;-87
2024/03/20 09:54:37;;;;;;;26.85;18.45;;;;;;;17.06;61.83;100159.72;6015935;23;20055;-87
2024/03/20 09:57:05;;;;;;;29.98;19.65;;;;;;;17.13;61.79;100165.41;6039412;23;20062;-87
2024/03/20 09:59:47;;;;;;;30.85;20.00;;;;;;;17.17;59.83;100158.00;6015652;23;20023;-87
2024/03/20 10:02:13;;;;;;;27.02;19.77;;;;;;;17.30;62.12;100155.22;6039042;23;20026;-87
2024/03/20 10:05:15;;;;;;;24.73;18.55;;;;;;;17.34;60.10;100158.50;6015749;23;20027;-87
2024/03/20 10:07:45;;;;;;;27.13;18.48;;;;;;;17.48;60.57;100163.56;6039445;23;20023;-88
2024/03/20 10:10:13;;;;;;;24.05;19.60;;;;;;;17.57;60.69;100170.81;6018430;23;20043;-87
2024/03/20 10:12:54;;;;;;;26.27;20.20;;;;;;;17.63;59.11;100165.94;6044165;23;20023;-87
2024/03/20 10:15:24;;;;;;;24.83;18.83;;;;;;;17.73;59.80;100169.59;6044112;23;20023;-87
2024/03/20 10:17:50;;;;;;;26.70;19.88;;;;;;;17.81;60.98;100167.16;6044185;23;20034;-87
2024/03/20 10:20:39;;;;;;;25.60;19.27;;;;;;;17.83;58.48;100159.88;6043482;23;20022;-87
2024/03/20 10:23:06;;;;;;;27.10;20.63;;;;;;;17.96;60.98;100156.22;6020134;23;20082;-88
2024/03/20 10:25:31;;;;;;;28.80;20.13;;;;;;;18.05;61.30;100160.78;6044314;23;20023;-87
2024/03/20 10:28:14;;;;;;;26.10;20.42;;;;;;;18.07;58.36;100161.50;6020437;23;20023;-87
2024/03/20 10:30:40;;;;;;;25.52;19.25;;;;;;;18.23;60.78;100160.25;6020265;23;20026;-87
2024/03/20 10:33:07;;;;;;;27.60;19.30;;;;;;;18.32;60.66;100159.47;6020118;23;20030;-87
2024/03/20 10:36:00;;;;;;;28.27;18.38;;;;;;;18.40;58.06;100152.69;6020305;23;20026;-87
2024/03/20 10:38:30;;;;;;;26.10;19.05;;;;;;;18.54;59.06;100157.69;6020355;23;20022;-91
2024/03/20 10:40:57;;;;;;;27.20;18.98;;;;;;;18.65;59.89;100156.75;6044222;23;20082;-91
2024/03/20 10:43:26;;;;;;;30.42;20.00;;;;;;;18.74;58.68;100161.34;6043877;23;20046;-91
2024/03/20 10:45:53;;;;;;;25.65;18.52;;;;;;;18.86;59.90;100154.09;6043969;23;20651;-91
2024/03/20 10:48:23;;;;;;;22.17;18.20;;;;;;;18.96;58.14;100155.97;6020349;23;20026;-91
2024/03/20 10:51:22;;;;;;;24.85;18.20;;;;;;;19.04;57.15;100150.81;6020143;23;20026;-91
2024/03/20 10:53:47;;;;;;;25.55;18.35;;;;;;;19.19;59.22;100147.81;6044029;23;20023;-91
2024/03/20 10:59:54;;;;;;;26.20;17.35;;;;;;;19.40;59.51;100155.78;6069329;23;20018;-91
2024/03/20 11:02:38;;;;;;;25.33;18.35;;;;;;;19.44;56.82;100149.16;6020344;23;20022;-92
2024/03/20 11:08:24;;;;;;;22.02;16.67;;;;;;;19.67;59.17;100141.78;6043637;23;20030;-91
2024/03/20 11:11:16;;;;;;;28.10;18.02;;;;;;;19.74;56.23;100150.09;6019836;23;20019;-91
2024/03/20 11:13:43;;;;;;;25.45;18.08;;;;;;;19.90;58.69;100144.22;6017954;23;20327;-91
2024/03/20 11:16:43;;;;;;;23.45;17.55;;;;;;;20.02;56.49;100139.63;6020116;23;20030;-91
2024/03/20 11:19:12;;;;;;;24.33;17.35;;;;;;;20.26;59.06;100141.00;6019865;23;20019;-91
2024/03/20 11:21:38;;;;;;;24.20;17.35;;;;;;;20.49;58.68;100138.06;6020189;23;20026;-90
2024/03/20 11:24:28;;;;;;;21.42;16.55;;;;;;;20.71;55.35;100144.06;6020126;23;20037;-91
2024/03/20 11:26:54;;;;;;;22.25;16.20;;;;;;;21.05;58.43;100140.03;6020008;23;20019;-91
2024/03/20 11:29:20;;;;;;;21.52;16.45;;;;;;;21.38;59.24;100132.41;6019785;23;20023;-91
2024/03/20 11:31:56;;;;;;;23.88;16.05;;;;;;;21.82;56.41;100138.94;6019931;23;20029;-91
2024/03/20 11:34:21;;;;;;;19.67;16.05;;;;;;;22.27;57.96;100137.19;6019785;23;20022;-91
2024/03/20 11:39:53;;;;;;;17.42;13.52;;;;;;;23.16;55.53;100133.59;6043448;23;20030;-90
2024/03/20 11:42:19;;;;;;;18.65;14.18;;;;;;;23.44;53.88;100141.47;6019893;23;20023;-91
2024/03/20 11:45:23;;;;;;;18.30;12.32;;;;;;;23.68;52.53;100137.16;6043523;23;20354;-92
2024/03/20 11:47:48;;;;;;;17.58;12.10;;;;;;;24.05;54.74;100125.13;6019762;23;20023;-91
2024/03/20 11:50:15;;;;;;;12.93;10.75;;;;;;;24.36;53.50;100130.88;6019488;23;20023;-91
2024/03/20 11:52:42;;;;;;;15.55;11.52;;;;;;;24.66;51.05;100131.13;6019622;23;20027;-91
2024/03/20 11:55:13;;;;;;;13.50;10.25;;;;;;;24.91;48.58;100126.59;6019633;23;20023;-90
2024/03/20 11:57:41;;;;;;;18.40;11.90;;;;;;;25.19;49.26;100125.31;6019714;23;20022;-92
2024/03/20 12:00:30;;;;;;;16.27;12.45;;;;;;;25.47;49.01;100124.84;6019637;23;20026;-92
2024/03/20 12:02:55;;;;;;;12.88;10.10;;;;;;;25.84;50.14;100126.00;6019632;23;20023;-90
2024/03/20 12:05:26;;;;;;;13.60;9.75;;;;;;;26.11;48.12;100123.78;6019853;23;20449;-91
2024/03/20 12:08:06;;;;;;;12.45;9.52;;;;;;;26.31;46.47;100122.47;6019690;23;20022;-91
2024/03/20 12:10:36;;;;;;;11.82;9.07;;;;;;;26.55;47.05;100118.69;6019699;23;20339;-91
2024/03/20 12:13:35;;;;;;;12.82;8.75;;;;;;;26.79;46.47;100111.34;6019409;23;21060;-92
2024/03/20 12:16:01;;;;;;;13.48;9.38;;;;;;;27.14;46.96;100116.22;6019466;23;20026;-92
2024/03/20 12:18:26;;;;;;;13.27;9.18;;;;;;;27.37;46.88;100107.97;6019472;23;20023;-91
2024/03/20 12:21:22;;;;;;;13.38;9.60;;;;;;;27.53;43.88;100106.06;6019374;23;20094;-91
2024/03/20 12:23:51;;;;;;;11.15;9.23;;;;;;;27.76;44.77;100102.38;6019533;23;20042;-91
2024/03/20 12:26:19;;;;;;;14.27;9.50;;;;;;;27.92;45.50;100109.41;6019608;23;20023;-91
2024/03/20 17:02:56;;;;;;;8.10;6.75;;;;;;;20.31;49.69;100045.19;6037925;23;20027;-91
2024/03/20 18:32:24;;;;;;;20.08;10.75;;;;;;;18.70;54.63;100060.41;6072404;23;20022;-88
2024/03/20 18:34:50;;;;;;;18.38;10.90;;;;;;;18.67;54.89;100060.66;6043477;23;20018;-88
2024/03/20 18:37:34;;;;;;;18.30;11.23;;;;;;;18.57;54.64;100058.78;6043754;23;20102;-88
2024/03/20 18:39:59;;;;;;;19.48;13.38;;;;;;;18.58;55.01;100057.81;6043980;23;20019;-88
2024/03/20 18:42:26;;;;;;;15.45;12.98;;;;;;;18.55;55.12;100065.22;6020073;23;20414;-88
2024/03/20 18:44:52;;;;;;;17.67;12.77;;;;;;;18.52;55.20;100068.16;6020415;23;20074;-88
2024/03/20 18:47:18;;;;;;;18.85;13.32;;;;;;;18.47;55.56;100058.72;6020019;23;20106;-88
2024/03/20 18:49:53;;;;;;;21.25;13.43;;;;;;;18.39;55.20;100055.88;6019988;23;20026;-88
2024/03/20 18:52:18;;;;;;;18.40;13.82;;;;;;;18.40;55.62;100051.41;6019991;23;20026;-89
2024/03/20 18:54:44;;;;;;;18.63;12.38;;;;;;;18.37;55.73;100060.50;6020201;23;20473;-89
2024/03/20 18:57:25;;;;;;;18.23;13.90;;;;;;;18.30;55.68;100062.84;6019996;23;20027;-89
2024/03/20 18:59:51;;;;;;;18.23;12.73;;;;;;;18.32;56.02;100055.56;6019786;23;20035;-88
2024/03/20 19:02:17;;;;;;;15.45;12.38;;;;;;;18.30;56.04;100065.50;6019939;23;20034;-89